sensor_id;sensor_type;location;lat;lon;timestamp;pressure;altitude;pressure_sealevel;temperature;humidity
80186;BME280;69904;52.122;5.422;2023-07-30T00:02:16;100905.19;;;16.33;70.77
80186;BME280;69904;52.122;5.422;2023-07-30T00:04:44;100896.91;;;16.28;70.93
80186;BME280;69904;52.122;5.422;2023-07-30T00:07:11;100905.06;;;16.28;71.04
80186;BME280;69904;52.122;5.422;2023-07-30T00:09:38;100901.13;;;16.24;71.13
80186;BME280;69904;52.122;5.422;2023-07-30T00:12:06;100905.25;;;16.15;71.57
80186;BME280;69904;52.122;5.422;2023-07-30T00:14:33;100905.47;;;16.14;71.43
80186;BME280;69904;52.122;5.422;2023-07-30T00:17:00;100903.38;;;16.16;71.65
80186;BME280;69904;52.122;5.422;2023-07-30T00:19:26;100904.69;;;16.13;71.81
80186;BME280;69904;52.122;5.422;2023-07-30T00:21:53;100905.97;;;16.11;72.03
80186;BME280;69904;52.122;5.422;2023-07-30T00:24:20;100913.28;;;16.10;71.91
80186;BME280;69904;52.122;5.422;2023-07-30T00:26:46;100905.72;;;16.12;72.03
80186;BME280;69904;52.122;5.422;2023-07-30T00:29:13;100902.19;;;16.12;71.87
80186;BME280;69904;52.122;5.422;2023-07-30T00:31:39;100911.88;;;16.08;72.18
80186;BME280;69904;52.122;5.422;2023-07-30T00:34:06;100916.09;;;16.04;72.19
80186;BME280;69904;52.122;5.422;2023-07-30T00:36:33;100910.66;;;16.04;72.44
80186;BME280;69904;52.122;5.422;2023-07-30T00:39:00;100914.22;;;16.04;72.72
80186;BME280;69904;52.122;5.422;2023-07-30T00:41:26;100909.81;;;16.03;72.82
80186;BME280;69904;52.122;5.422;2023-07-30T00:43:53;100917.41;;;16.01;72.98
80186;BME280;69904;52.122;5.422;2023-07-30T00:46:20;100911.13;;;16.00;72.92
80186;BME280;69904;52.122;5.422;2023-07-30T00:48:46;100917.63;;;15.99;73.03
80186;BME280;69904;52.122;5.422;2023-07-30T00:51:13;100908.06;;;15.97;73.19
80186;BME280;69904;52.122;5.422;2023-07-30T00:53:41;100918.56;;;15.93;73.47
80186;BME280;69904;52.122;5.422;2023-07-30T00:56:08;100905.88;;;15.87;73.23
80186;BME280;69904;52.122;5.422;2023-07-30T00:58:36;100902.09;;;15.88;73.51
80186;BME280;69904;52.122;5.422;2023-07-30T01:01:02;100906.69;;;15.88;74.21
80186;BME280;69904;52.122;5.422;2023-07-30T01:03:29;100903.97;;;15.88;74.14
80186;BME280;69904;52.122;5.422;2023-07-30T01:05:56;100903.41;;;15.86;74.66
80186;BME280;69904;52.122;5.422;2023-07-30T01:08:23;100917.00;;;15.86;74.69
80186;BME280;69904;52.122;5.422;2023-07-30T01:10:50;100912.84;;;15.83;74.75
80186;BME280;69904;52.122;5.422;2023-07-30T01:13:17;100913.06;;;15.82;74.77
80186;BME280;69904;52.122;5.422;2023-07-30T01:15:44;100919.19;;;15.77;75.22
80186;BME280;69904;52.122;5.422;2023-07-30T01:18:11;100922.75;;;15.78;75.29
80186;BME280;69904;52.122;5.422;2023-07-30T01:20:38;100916.94;;;15.74;75.60
80186;BME280;69904;52.122;5.422;2023-07-30T01:23:04;100931.59;;;15.73;75.85
80186;BME280;69904;52.122;5.422;2023-07-30T01:25:36;100919.53;;;15.69;75.75
80186;BME280;69904;52.122;5.422;2023-07-30T01:28:04;100923.16;;;15.63;76.15
80186;BME280;69904;52.122;5.422;2023-07-30T01:30:37;100922.09;;;15.64;76.56
80186;BME280;69904;52.122;5.422;2023-07-30T01:33:06;100928.13;;;15.66;76.71
80186;BME280;69904;52.122;5.422;2023-07-30T01:35:35;100931.53;;;15.62;76.87
80186;BME280;69904;52.122;5.422;2023-07-30T01:38:03;100936.16;;;15.61;77.02
80186;BME280;69904;52.122;5.422;2023-07-30T01:40:32;100932.16;;;15.64;77.05
80186;BME280;69904;52.122;5.422;2023-07-30T01:42:59;100932.00;;;15.58;77.32
80186;BME280;69904;52.122;5.422;2023-07-30T01:45:25;100932.22;;;15.57;77.45
80186;BME280;69904;52.122;5.422;2023-07-30T01:47:52;100928.47;;;15.58;77.69
80186;BME280;69904;52.122;5.422;2023-07-30T01:50:19;100925.75;;;15.58;77.72
80186;BME280;69904;52.122;5.422;2023-07-30T01:52:45;100925.97;;;15.56;77.55
80186;BME280;69904;52.122;5.422;2023-07-30T01:55:12;100927.41;;;15.59;77.46
80186;BME280;69904;52.122;5.422;2023-07-30T01:57:39;100933.69;;;15.60;77.52
80186;BME280;69904;52.122;5.422;2023-07-30T02:00:05;100933.91;;;15.58;77.71
80186;BME280;69904;52.122;5.422;2023-07-30T02:02:32;100937.06;;;15.55;78.33
80186;BME280;69904;52.122;5.422;2023-07-30T02:04:59;100926.44;;;15.53;78.47
80186;BME280;69904;52.122;5.422;2023-07-30T02:07:25;100936.47;;;15.53;78.17
80186;BME280;69904;52.122;5.422;2023-07-30T02:09:52;100929.16;;;15.53;78.31
80186;BME280;69904;52.122;5.422;2023-07-30T02:12:19;100939.78;;;15.55;78.27
80186;BME280;69904;52.122;5.422;2023-07-30T02:14:45;100939.56;;;15.56;78.78
80186;BME280;69904;52.122;5.422;2023-07-30T02:17:12;100929.72;;;15.55;78.91
80186;BME280;69904;52.122;5.422;2023-07-30T02:19:38;100931.03;;;15.53;78.98
80186;BME280;69904;52.122;5.422;2023-07-30T02:22:05;100930.19;;;15.52;79.59
80186;BME280;69904;52.122;5.422;2023-07-30T02:24:31;100922.88;;;15.53;79.13
80186;BME280;69904;52.122;5.422;2023-07-30T02:26:58;100928.53;;;15.51;79.64
80186;BME280;69904;52.122;5.422;2023-07-30T02:29:24;100934.16;;;15.50;79.72
80186;BME280;69904;52.122;5.422;2023-07-30T02:31:51;100926.00;;;15.50;79.40
80186;BME280;69904;52.122;5.422;2023-07-30T02:34:18;100928.53;;;15.51;79.81
80186;BME280;69904;52.122;5.422;2023-07-30T02:36:44;100927.06;;;15.49;79.92
80186;BME280;69904;52.122;5.422;2023-07-30T02:39:11;100928.72;;;15.50;80.21
80186;BME280;69904;52.122;5.422;2023-07-30T02:41:37;100921.84;;;15.47;80.11
80186;BME280;69904;52.122;5.422;2023-07-30T02:44:04;100918.31;;;15.47;79.94
80186;BME280;69904;52.122;5.422;2023-07-30T02:46:31;100919.97;;;15.48;80.51
80186;BME280;69904;52.122;5.422;2023-07-30T02:48:57;100914.97;;;15.45;80.71
80186;BME280;69904;52.122;5.422;2023-07-30T02:51:24;100914.97;;;15.45;80.66
80186;BME280;69904;52.122;5.422;2023-07-30T02:53:57;100913.56;;;15.42;81.02
80186;BME280;69904;52.122;5.422;2023-07-30T02:56:25;100918.16;;;15.42;81.22
80186;BME280;69904;52.122;5.422;2023-07-30T02:58:52;100921.78;;;15.36;81.76
80186;BME280;69904;52.122;5.422;2023-07-30T03:01:18;100928.06;;;15.36;81.49
80186;BME280;69904;52.122;5.422;2023-07-30T03:03:45;100913.84;;;15.34;81.91
80186;BME280;69904;52.122;5.422;2023-07-30T03:06:11;100924.13;;;15.32;81.72
80186;BME280;69904;52.122;5.422;2023-07-30T03:08:38;100921.41;;;15.32;82.08
80186;BME280;69904;52.122;5.422;2023-07-30T03:11:04;100912.19;;;15.33;81.71
80186;BME280;69904;52.122;5.422;2023-07-30T03:13:31;100921.78;;;15.36;81.89
80186;BME280;69904;52.122;5.422;2023-07-30T03:15:57;100920.59;;;15.32;82.20
80186;BME280;69904;52.122;5.422;2023-07-30T03:18:24;100925.41;;;15.30;82.93
80186;BME280;69904;52.122;5.422;2023-07-30T03:20:51;100934.63;;;15.29;82.90
80186;BME280;69904;52.122;5.422;2023-07-30T03:23:17;100926.44;;;15.29;83.02
80186;BME280;69904;52.122;5.422;2023-07-30T03:25:44;100920.81;;;15.30;83.21
80186;BME280;69904;52.122;5.422;2023-07-30T03:28:10;100924.13;;;15.32;83.00
80186;BME280;69904;52.122;5.422;2023-07-30T03:30:37;100926.84;;;15.32;82.98
80186;BME280;69904;52.122;5.422;2023-07-30T03:33:04;100926.25;;;15.30;83.04
80186;BME280;69904;52.122;5.422;2023-07-30T03:35:30;100928.97;;;15.30;83.33
80186;BME280;69904;52.122;5.422;2023-07-30T03:37:57;100932.50;;;15.31;83.20
80186;BME280;69904;52.122;5.422;2023-07-30T03:40:23;100939.84;;;15.30;83.48
80186;BME280;69904;52.122;5.422;2023-07-30T03:42:50;100937.13;;;15.30;83.76
80186;BME280;69904;52.122;5.422;2023-07-30T03:45:17;100939.84;;;15.30;83.60
80186;BME280;69904;52.122;5.422;2023-07-30T03:47:43;100937.94;;;15.31;83.55
80186;BME280;69904;52.122;5.422;2023-07-30T03:50:10;100941.72;;;15.30;84.10
80186;BME280;69904;52.122;5.422;2023-07-30T03:52:37;100945.97;;;15.26;84.13
80186;BME280;69904;52.122;5.422;2023-07-30T03:55:04;100937.19;;;15.24;84.42
80186;BME280;69904;52.122;5.422;2023-07-30T03:57:30;100935.28;;;15.24;84.23
80186;BME280;69904;52.122;5.422;2023-07-30T03:59:59;100946.38;;;15.23;84.70
80186;BME280;69904;52.122;5.422;2023-07-30T04:02:26;100942.88;;;15.22;84.52
80186;BME280;69904;52.122;5.422;2023-07-30T04:04:53;100937.44;;;15.22;84.75
80186;BME280;69904;52.122;5.422;2023-07-30T04:07:19;100939.75;;;15.18;85.07
80186;BME280;69904;52.122;5.422;2023-07-30T04:09:46;100941.03;;;15.16;85.57
80186;BME280;69904;52.122;5.422;2023-07-30T04:12:12;100941.25;;;15.14;85.01
80186;BME280;69904;52.122;5.422;2023-07-30T04:14:39;100933.56;;;15.11;85.41
80186;BME280;69904;52.122;5.422;2023-07-30T04:17:06;100931.66;;;15.12;85.87
80186;BME280;69904;52.122;5.422;2023-07-30T04:19:32;100935.22;;;15.12;85.72
80186;BME280;69904;52.122;5.422;2023-07-30T04:21:59;100943.38;;;15.12;85.71
80186;BME280;69904;52.122;5.422;2023-07-30T04:24:25;100941.47;;;15.13;86.14
80186;BME280;69904;52.122;5.422;2023-07-30T04:26:52;100948.16;;;15.17;86.11
80186;BME280;69904;52.122;5.422;2023-07-30T04:29:19;100943.28;;;15.19;86.33
80186;BME280;69904;52.122;5.422;2023-07-30T04:31:46;100949.34;;;15.21;86.25
80186;BME280;69904;52.122;5.422;2023-07-30T04:34:12;100954.94;;;15.26;86.44
80186;BME280;69904;52.122;5.422;2023-07-30T04:36:40;100957.66;;;15.26;86.67
80186;BME280;69904;52.122;5.422;2023-07-30T04:39:06;100958.03;;;15.30;86.38
80186;BME280;69904;52.122;5.422;2023-07-30T04:41:33;100953.66;;;15.29;86.68
80186;BME280;69904;52.122;5.422;2023-07-30T04:44:02;100955.94;;;15.32;87.03
80186;BME280;69904;52.122;5.422;2023-07-30T04:46:29;100954.63;;;15.34;87.36
80186;BME280;69904;52.122;5.422;2023-07-30T04:48:57;100956.44;;;15.40;87.15
80186;BME280;69904;52.122;5.422;2023-07-30T04:51:23;100964.41;;;15.42;87.37
80186;BME280;69904;52.122;5.422;2023-07-30T04:53:50;100962.50;;;15.42;86.78
80186;BME280;69904;52.122;5.422;2023-07-30T04:56:16;100963.09;;;15.44;86.97
80186;BME280;69904;52.122;5.422;2023-07-30T04:58:43;100959.53;;;15.44;86.72
80186;BME280;69904;52.122;5.422;2023-07-30T05:01:09;100968.53;;;15.44;86.50
80186;BME280;69904;52.122;5.422;2023-07-30T05:03:36;100964.97;;;15.44;86.68
80186;BME280;69904;52.122;5.422;2023-07-30T05:06:02;100967.03;;;15.48;86.94
80186;BME280;69904;52.122;5.422;2023-07-30T05:08:29;100968.47;;;15.51;86.94
80186;BME280;69904;52.122;5.422;2023-07-30T05:10:55;100967.59;;;15.57;86.94
80186;BME280;69904;52.122;5.422;2023-07-30T05:13:22;100967.13;;;15.60;87.01
80186;BME280;69904;52.122;5.422;2023-07-30T05:15:48;100973.56;;;15.66;87.24
80186;BME280;69904;52.122;5.422;2023-07-30T05:18:15;100967.44;;;15.70;87.37
80186;BME280;69904;52.122;5.422;2023-07-30T05:20:41;100968.66;;;15.74;86.93
80186;BME280;69904;52.122;5.422;2023-07-30T05:23:08;100973.88;;;15.76;87.16
80186;BME280;69904;52.122;5.422;2023-07-30T05:25:34;100972.56;;;15.78;87.12
80186;BME280;69904;52.122;5.422;2023-07-30T05:28:02;100973.19;;;15.80;86.88
80186;BME280;69904;52.122;5.422;2023-07-30T05:30:28;100972.94;;;15.82;87.16
80186;BME280;69904;52.122;5.422;2023-07-30T05:32:55;100972.50;;;15.85;87.00
80186;BME280;69904;52.122;5.422;2023-07-30T05:35:21;100967.63;;;15.87;86.74
80186;BME280;69904;52.122;5.422;2023-07-30T05:37:50;100974.31;;;15.91;86.88
80186;BME280;69904;52.122;5.422;2023-07-30T05:40:17;100962.59;;;15.90;86.81
80186;BME280;69904;52.122;5.422;2023-07-30T05:42:43;100972.03;;;15.88;86.70
80186;BME280;69904;52.122;5.422;2023-07-30T05:45:12;100981.03;;;15.88;87.13
80186;BME280;69904;52.122;5.422;2023-07-30T05:47:38;100979.75;;;15.91;86.93
80186;BME280;69904;52.122;5.422;2023-07-30T05:50:06;100977.59;;;15.93;86.74
80186;BME280;69904;52.122;5.422;2023-07-30T05:52:33;100967.56;;;15.93;86.47
80186;BME280;69904;52.122;5.422;2023-07-30T05:54:59;100977.16;;;15.96;86.54
80186;BME280;69904;52.122;5.422;2023-07-30T05:57:26;100973.63;;;15.95;86.19
80186;BME280;69904;52.122;5.422;2023-07-30T05:59:52;100981.91;;;16.00;86.07
80186;BME280;69904;52.122;5.422;2023-07-30T06:02:19;100977.31;;;16.01;86.13
80186;BME280;69904;52.122;5.422;2023-07-30T06:04:45;100974.81;;;15.99;85.93
80186;BME280;69904;52.122;5.422;2023-07-30T06:07:11;100978.84;;;15.97;85.57
80186;BME280;69904;52.122;5.422;2023-07-30T06:09:38;100983.44;;;15.96;85.38
80186;BME280;69904;52.122;5.422;2023-07-30T06:12:05;100991.13;;;15.99;85.84
80186;BME280;69904;52.122;5.422;2023-07-30T06:14:31;100987.00;;;15.97;85.15
80186;BME280;69904;52.122;5.422;2023-07-30T06:16:57;100982.75;;;16.01;85.90
80186;BME280;69904;52.122;5.422;2023-07-30T06:19:24;100989.25;;;16.00;85.59
80186;BME280;69904;52.122;5.422;2023-07-30T06:21:51;100985.34;;;15.96;85.38
80186;BME280;69904;52.122;5.422;2023-07-30T06:24:17;100981.31;;;15.98;85.96
80186;BME280;69904;52.122;5.422;2023-07-30T06:26:44;100982.75;;;16.01;85.39
80186;BME280;69904;52.122;5.422;2023-07-30T06:29:10;100979.56;;;16.04;85.62
80186;BME280;69904;52.122;5.422;2023-07-30T06:31:37;100985.13;;;16.09;85.38
80186;BME280;69904;52.122;5.422;2023-07-30T06:34:04;100992.41;;;16.15;85.26
80186;BME280;69904;52.122;5.422;2023-07-30T06:36:30;100988.97;;;16.20;84.86
80186;BME280;69904;52.122;5.422;2023-07-30T06:38:57;100993.38;;;16.21;84.81
80186;BME280;69904;52.122;5.422;2023-07-30T06:41:25;100982.47;;;16.21;84.99
80186;BME280;69904;52.122;5.422;2023-07-30T06:43:51;100992.44;;;16.27;84.79
80186;BME280;69904;52.122;5.422;2023-07-30T06:46:18;100988.28;;;16.24;84.57
80186;BME280;69904;52.122;5.422;2023-07-30T06:48:44;100987.84;;;16.27;84.46
80186;BME280;69904;52.122;5.422;2023-07-30T06:51:11;100978.81;;;16.27;84.42
80186;BME280;69904;52.122;5.422;2023-07-30T06:53:39;100977.28;;;16.31;84.54
80186;BME280;69904;52.122;5.422;2023-07-30T06:56:05;100973.75;;;16.30;83.96
80186;BME280;69904;52.122;5.422;2023-07-30T06:58:32;100983.34;;;16.33;84.17
80186;BME280;69904;52.122;5.422;2023-07-30T07:00:58;100979.78;;;16.32;84.12
80186;BME280;69904;52.122;5.422;2023-07-30T07:03:25;100981.06;;;16.30;84.32
80186;BME280;69904;52.122;5.422;2023-07-30T07:05:53;100980.25;;;16.29;84.05
80186;BME280;69904;52.122;5.422;2023-07-30T07:08:20;100983.78;;;16.30;83.75
80186;BME280;69904;52.122;5.422;2023-07-30T07:10:47;100987.75;;;16.34;83.95
80186;BME280;69904;52.122;5.422;2023-07-30T07:13:14;100992.72;;;16.37;83.26
80186;BME280;69904;52.122;5.422;2023-07-30T07:15:42;100996.75;;;16.34;83.64
80186;BME280;69904;52.122;5.422;2023-07-30T07:18:09;100992.09;;;16.35;83.36
80186;BME280;69904;52.122;5.422;2023-07-30T07:20:37;101000.06;;;16.36;83.06
80186;BME280;69904;52.122;5.422;2023-07-30T07:23:04;101004.22;;;16.39;83.03
80186;BME280;69904;52.122;5.422;2023-07-30T07:25:30;101004.22;;;16.39;82.84
80186;BME280;69904;52.122;5.422;2023-07-30T07:27:57;100997.25;;;16.43;82.56
80186;BME280;69904;52.122;5.422;2023-07-30T07:30:23;101002.69;;;16.43;82.10
80186;BME280;69904;52.122;5.422;2023-07-30T07:32:50;101000.31;;;16.47;82.22
80186;BME280;69904;52.122;5.422;2023-07-30T07:35:19;101006.16;;;16.50;82.33
80186;BME280;69904;52.122;5.422;2023-07-30T07:37:46;101004.84;;;16.53;81.58
80186;BME280;69904;52.122;5.422;2023-07-30T07:40:13;100996.22;;;16.56;81.49
80186;BME280;69904;52.122;5.422;2023-07-30T07:42:39;100995.78;;;16.59;81.89
80186;BME280;69904;52.122;5.422;2023-07-30T07:45:06;100991.75;;;16.61;81.43
80186;BME280;69904;52.122;5.422;2023-07-30T07:47:33;100989.84;;;16.62;80.86
80186;BME280;69904;52.122;5.422;2023-07-30T07:50:00;101007.41;;;16.66;81.32
80186;BME280;69904;52.122;5.422;2023-07-30T07:52:26;100995.81;;;16.70;80.73
80186;BME280;69904;52.122;5.422;2023-07-30T07:54:53;100996.38;;;16.72;80.43
80186;BME280;69904;52.122;5.422;2023-07-30T07:57:19;101001.84;;;16.72;79.99
80186;BME280;69904;52.122;5.422;2023-07-30T07:59:46;101002.66;;;16.73;80.58
80186;BME280;69904;52.122;5.422;2023-07-30T08:02:13;101006.84;;;16.75;80.23
80186;BME280;69904;52.122;5.422;2023-07-30T08:04:40;101000.91;;;16.78;80.18
80186;BME280;69904;52.122;5.422;2023-07-30T08:07:06;101006.25;;;16.85;80.15
80186;BME280;69904;52.122;5.422;2023-07-30T08:09:33;101004.59;;;16.96;79.35
80186;BME280;69904;52.122;5.422;2023-07-30T08:12:00;101011.84;;;17.02;79.11
80186;BME280;69904;52.122;5.422;2023-07-30T08:14:27;101001.53;;;17.04;78.65
80186;BME280;69904;52.122;5.422;2023-07-30T08:16:54;101003.91;;;17.23;78.37
80186;BME280;69904;52.122;5.422;2023-07-30T08:19:20;101012.22;;;17.40;77.71
80186;BME280;69904;52.122;5.422;2023-07-30T08:21:47;100989.78;;;17.50;76.28
80186;BME280;69904;52.122;5.422;2023-07-30T08:24:13;101003.31;;;17.45;76.29
80186;BME280;69904;52.122;5.422;2023-07-30T08:26:40;100997.13;;;17.38;76.04
80186;BME280;69904;52.122;5.422;2023-07-30T08:29:06;101000.25;;;17.41;77.14
80186;BME280;69904;52.122;5.422;2023-07-30T08:31:36;100989.56;;;17.40;76.19
80186;BME280;69904;52.122;5.422;2023-07-30T08:34:03;100993.94;;;17.29;76.35
80186;BME280;69904;52.122;5.422;2023-07-30T08:36:30;100996.69;;;17.29;76.49
80186;BME280;69904;52.122;5.422;2023-07-30T08:38:57;100995.13;;;17.33;76.58
80186;BME280;69904;52.122;5.422;2023-07-30T08:41:24;100995.59;;;17.42;76.17
80186;BME280;69904;52.122;5.422;2023-07-30T08:43:50;101004.88;;;17.41;75.22
80186;BME280;69904;52.122;5.422;2023-07-30T08:46:19;100997.63;;;17.46;75.16
80186;BME280;69904;52.122;5.422;2023-07-30T08:48:45;101000.94;;;17.60;74.44
80186;BME280;69904;52.122;5.422;2023-07-30T08:51:16;100997.50;;;17.64;74.00
80186;BME280;69904;52.122;5.422;2023-07-30T08:53:44;101004.13;;;17.68;73.85
80186;BME280;69904;52.122;5.422;2023-07-30T08:56:11;101032.47;;;17.79;73.70
80186;BME280;69904;52.122;5.422;2023-07-30T08:58:38;101008.81;;;17.96;73.31
80186;BME280;69904;52.122;5.422;2023-07-30T09:01:09;101009.41;;;17.98;72.77
80186;BME280;69904;52.122;5.422;2023-07-30T09:03:39;101012.38;;;17.97;73.63
80186;BME280;69904;52.122;5.422;2023-07-30T09:06:07;101024.84;;;17.93;73.60
80186;BME280;69904;52.122;5.422;2023-07-30T09:08:34;101014.28;;;17.96;74.42
80186;BME280;69904;52.122;5.422;2023-07-30T09:11:08;101020.66;;;18.02;73.77
80186;BME280;69904;52.122;5.422;2023-07-30T09:13:39;101019.94;;;18.06;74.25
80186;BME280;69904;52.122;5.422;2023-07-30T09:16:11;101011.06;;;17.99;72.86
80186;BME280;69904;52.122;5.422;2023-07-30T09:18:45;101015.22;;;17.90;73.34
80186;BME280;69904;52.122;5.422;2023-07-30T09:21:15;101011.44;;;17.91;73.05
80186;BME280;69904;52.122;5.422;2023-07-30T09:23:46;101018.06;;;17.95;73.01
80186;BME280;69904;52.122;5.422;2023-07-30T09:26:13;101032.22;;;17.92;73.12
80186;BME280;69904;52.122;5.422;2023-07-30T09:28:40;101029.59;;;17.97;73.44
80186;BME280;69904;52.122;5.422;2023-07-30T09:31:07;101040.03;;;18.00;73.28
80186;BME280;69904;52.122;5.422;2023-07-30T09:33:48;101036.22;;;18.01;73.07
80186;BME280;69904;52.122;5.422;2023-07-30T09:36:14;101028.53;;;17.98;73.05
80186;BME280;69904;52.122;5.422;2023-07-30T09:38:44;101047.50;;;18.05;72.95
80186;BME280;69904;52.122;5.422;2023-07-30T09:41:12;101045.94;;;18.09;72.52
80186;BME280;69904;52.122;5.422;2023-07-30T09:43:39;101042.16;;;18.10;72.36
80186;BME280;69904;52.122;5.422;2023-07-30T09:46:06;101042.00;;;18.17;71.71
80186;BME280;69904;52.122;5.422;2023-07-30T09:48:34;101047.19;;;18.30;71.47
80186;BME280;69904;52.122;5.422;2023-07-30T09:51:02;101043.13;;;18.32;71.50
80186;BME280;69904;52.122;5.422;2023-07-30T09:53:33;101053.91;;;18.39;71.52
80186;BME280;69904;52.122;5.422;2023-07-30T09:56:02;101056.66;;;18.39;70.20
80186;BME280;69904;52.122;5.422;2023-07-30T09:58:30;101055.81;;;18.38;69.84
80186;BME280;69904;52.122;5.422;2023-07-30T10:01:01;101054.31;;;18.31;70.13
80186;BME280;69904;52.122;5.422;2023-07-30T10:03:32;101055.91;;;18.55;70.24
80186;BME280;69904;52.122;5.422;2023-07-30T10:06:05;101056.88;;;18.94;68.85
80186;BME280;69904;52.122;5.422;2023-07-30T10:08:38;101064.44;;;19.04;67.85
80186;BME280;69904;52.122;5.422;2023-07-30T10:11:07;101067.25;;;19.25;66.62
80186;BME280;69904;52.122;5.422;2023-07-30T10:13:35;101065.09;;;19.27;66.14
80186;BME280;69904;52.122;5.422;2023-07-30T10:16:09;101061.53;;;19.27;65.49
80186;BME280;69904;52.122;5.422;2023-07-30T10:18:39;101070.97;;;19.19;63.97
80186;BME280;69904;52.122;5.422;2023-07-30T10:21:11;101073.31;;;19.11;63.02
80186;BME280;69904;52.122;5.422;2023-07-30T10:24:01;101075.13;;;19.39;63.34
80186;BME280;69904;52.122;5.422;2023-07-30T10:26:33;101071.59;;;19.55;61.06
80186;BME280;69904;52.122;5.422;2023-07-30T10:29:17;101070.56;;;19.44;61.52
80186;BME280;69904;52.122;5.422;2023-07-30T10:31:52;101078.50;;;19.29;60.51
80186;BME280;69904;52.122;5.422;2023-07-30T10:34:19;101078.03;;;19.15;60.81
80186;BME280;69904;52.122;5.422;2023-07-30T10:36:48;101076.88;;;19.11;61.11
80186;BME280;69904;52.122;5.422;2023-07-30T10:39:28;101091.19;;;19.18;61.55
80186;BME280;69904;52.122;5.422;2023-07-30T10:41:56;101082.75;;;19.20;61.39
80186;BME280;69904;52.122;5.422;2023-07-30T10:44:28;101087.91;;;19.16;60.63
80186;BME280;69904;52.122;5.422;2023-07-30T10:46:57;101082.81;;;19.08;61.29
80186;BME280;69904;52.122;5.422;2023-07-30T10:49:23;101083.56;;;19.04;61.23
80186;BME280;69904;52.122;5.422;2023-07-30T10:51:55;101087.81;;;19.11;61.08
80186;BME280;69904;52.122;5.422;2023-07-30T10:54:23;101090.22;;;19.58;59.78
80186;BME280;69904;52.122;5.422;2023-07-30T10:56:51;101097.34;;;19.75;58.13
80186;BME280;69904;52.122;5.422;2023-07-30T10:59:19;101094.88;;;19.57;58.67
80186;BME280;69904;52.122;5.422;2023-07-30T11:01:46;101105.34;;;19.60;57.21
80186;BME280;69904;52.122;5.422;2023-07-30T11:04:20;101098.44;;;19.74;57.79
80186;BME280;69904;52.122;5.422;2023-07-30T11:06:51;101097.59;;;20.12;57.50
80186;BME280;69904;52.122;5.422;2023-07-30T11:09:25;101097.34;;;20.36;56.86
80186;BME280;69904;52.122;5.422;2023-07-30T11:11:55;101093.03;;;20.40;55.17
80186;BME280;69904;52.122;5.422;2023-07-30T11:14:23;101099.97;;;20.09;56.46
80186;BME280;69904;52.122;5.422;2023-07-30T11:16:57;101102.28;;;19.95;55.87
80186;BME280;69904;52.122;5.422;2023-07-30T11:19:27;101109.97;;;19.98;56.66
80186;BME280;69904;52.122;5.422;2023-07-30T11:21:55;101109.97;;;19.98;56.75
80186;BME280;69904;52.122;5.422;2023-07-30T11:24:35;101104.94;;;19.90;56.45
80186;BME280;69904;52.122;5.422;2023-07-30T11:27:03;101113.28;;;19.79;55.97
80186;BME280;69904;52.122;5.422;2023-07-30T11:29:33;101115.09;;;19.73;56.50
80186;BME280;69904;52.122;5.422;2023-07-30T11:32:00;101115.19;;;19.78;57.79
80186;BME280;69904;52.122;5.422;2023-07-30T11:34:30;101119.59;;;19.79;58.34
80186;BME280;69904;52.122;5.422;2023-07-30T11:37:01;101117.75;;;19.85;58.33
80186;BME280;69904;52.122;5.422;2023-07-30T11:39:29;101125.03;;;19.96;57.12
80186;BME280;69904;52.122;5.422;2023-07-30T11:41:56;101121.16;;;19.92;57.46
80186;BME280;69904;52.122;5.422;2023-07-30T11:44:35;101127.97;;;20.11;56.85
80186;BME280;69904;52.122;5.422;2023-07-30T11:47:01;101119.81;;;20.16;55.80
80186;BME280;69904;52.122;5.422;2023-07-30T11:49:31;101134.16;;;20.40;56.33
80186;BME280;69904;52.122;5.422;2023-07-30T11:52:08;101124.97;;;20.51;54.85
80186;BME280;69904;52.122;5.422;2023-07-30T11:54:36;101136.25;;;20.54;55.03
80186;BME280;69904;52.122;5.422;2023-07-30T11:57:03;101127.13;;;20.49;55.37
80186;BME280;69904;52.122;5.422;2023-07-30T11:59:32;101129.94;;;20.32;56.11
80186;BME280;69904;52.122;5.422;2023-07-30T12:01:59;101114.47;;;20.26;56.46
80186;BME280;69904;52.122;5.422;2023-07-30T12:04:31;101124.59;;;20.26;57.09
80186;BME280;69904;52.122;5.422;2023-07-30T12:06:58;101129.19;;;20.20;57.82
80186;BME280;69904;52.122;5.422;2023-07-30T12:09:24;101131.44;;;20.23;57.55
80186;BME280;69904;52.122;5.422;2023-07-30T12:11:56;101139.38;;;20.03;58.04
80186;BME280;69904;52.122;5.422;2023-07-30T12:14:43;101151.22;;;19.87;57.46
80186;BME280;69904;52.122;5.422;2023-07-30T12:17:10;101140.81;;;19.89;58.39
80186;BME280;69904;52.122;5.422;2023-07-30T12:19:36;101147.44;;;19.93;58.68
80186;BME280;69904;52.122;5.422;2023-07-30T12:22:03;101142.75;;;20.10;57.91
80186;BME280;69904;52.122;5.422;2023-07-30T12:24:30;101154.06;;;20.13;57.03
80186;BME280;69904;52.122;5.422;2023-07-30T12:26:57;101158.16;;;19.94;57.41
80186;BME280;69904;52.122;5.422;2023-07-30T12:29:24;101136.47;;;19.93;57.26
80186;BME280;69904;52.122;5.422;2023-07-30T12:31:52;101142.34;;;20.18;57.57
80186;BME280;69904;52.122;5.422;2023-07-30T12:34:22;101132.47;;;20.39;55.95
80186;BME280;69904;52.122;5.422;2023-07-30T12:36:52;101141.53;;;20.39;54.29
80186;BME280;69904;52.122;5.422;2023-07-30T12:39:18;101138.75;;;20.17;55.46
80186;BME280;69904;52.122;5.422;2023-07-30T12:41:45;101141.03;;;20.04;55.85
80186;BME280;69904;52.122;5.422;2023-07-30T12:44:12;101153.03;;;19.98;56.93
80186;BME280;69904;52.122;5.422;2023-07-30T12:46:38;101150.16;;;20.09;57.76
80186;BME280;69904;52.122;5.422;2023-07-30T12:49:05;101147.78;;;20.35;57.26
80186;BME280;69904;52.122;5.422;2023-07-30T12:51:32;101132.41;;;20.77;57.01
80186;BME280;69904;52.122;5.422;2023-07-30T12:53:59;101151.94;;;20.86;54.00